createdAt,value
2019-01-30T00:02:11.220Z,11.00
2019-01-30T00:04:41.804Z,11.23
2019-01-30T00:07:12.472Z,14.03
2019-01-30T00:09:43.075Z,10.97
2019-01-30T00:12:13.781Z,14.37
2019-01-30T00:14:44.268Z,12.23
2019-01-30T00:17:14.854Z,11.20
2019-01-30T00:19:45.454Z,15.93
2019-01-30T00:22:16.037Z,8.83
2019-01-30T00:24:46.633Z,9.93
2019-01-30T00:27:17.140Z,10.57
2019-01-30T00:29:47.586Z,13.23
2019-01-30T00:32:18.202Z,16.33
2019-01-30T00:34:48.779Z,9.33
2019-01-30T00:37:19.364Z,10.70
2019-01-30T00:39:50.064Z,10.87
2019-01-30T00:42:20.687Z,10.23
2019-01-30T00:44:51.294Z,9.97
2019-01-30T00:47:21.880Z,13.13
2019-01-30T00:49:52.516Z,10.20
2019-01-30T00:52:23.142Z,11.67
2019-01-30T00:54:53.739Z,9.77
2019-01-30T00:57:24.335Z,9.20
2019-01-30T00:59:54.924Z,11.87
2019-01-30T01:02:25.558Z,10.27
2019-01-30T01:04:56.094Z,8.60
2019-01-30T01:07:26.570Z,10.33
2019-01-30T01:09:57.100Z,11.70
2019-01-30T01:12:27.534Z,12.03
2019-01-30T01:14:58.089Z,10.67
2019-01-30T01:17:28.666Z,12.03
2019-01-30T01:19:59.196Z,15.00
2019-01-30T01:22:29.808Z,8.57
2019-01-30T01:25:00.484Z,9.37
2019-01-30T01:27:31.090Z,13.07
2019-01-30T01:30:01.759Z,13.30
2019-01-30T01:32:32.426Z,13.80
2019-01-30T01:35:02.953Z,13.27
2019-01-30T01:37:33.606Z,13.83
2019-01-30T01:40:05.423Z,13.63
2019-01-30T01:42:36.068Z,11.37
2019-01-30T01:45:08.127Z,11.97
2019-01-30T01:47:38.752Z,12.17
2019-01-30T01:50:11.132Z,12.73
2019-01-30T01:52:41.747Z,9.43
2019-01-30T01:55:12.410Z,10.90
2019-01-30T01:57:43.016Z,10.83
2019-01-30T02:00:18.725Z,9.57
2019-01-30T02:02:49.350Z,7.57
2019-01-30T02:05:21.497Z,11.70
2019-01-30T02:07:52.184Z,10.87
2019-01-30T02:10:23.488Z,12.80
2019-01-30T02:12:53.995Z,13.73
2019-01-30T02:15:24.552Z,12.13
2019-01-30T02:17:55.079Z,10.83
2019-01-30T02:20:30.915Z,12.53
2019-01-30T02:23:01.621Z,12.10
2019-01-30T02:25:32.282Z,16.20
2019-01-30T02:28:02.835Z,14.27
2019-01-30T02:30:33.528Z,13.43
2019-01-30T02:33:04.162Z,12.67
2019-01-30T02:35:34.755Z,11.67
2019-01-30T02:38:05.389Z,15.43
2019-01-30T02:40:35.966Z,14.23
2019-01-30T02:43:06.551Z,13.27
2019-01-30T02:45:37.339Z,9.93
2019-01-30T02:48:07.934Z,14.07
2019-01-30T02:50:38.555Z,14.50
2019-01-30T02:53:09.046Z,15.50
2019-01-30T02:55:39.642Z,12.07
2019-01-30T02:58:10.270Z,11.87
2019-01-30T03:00:40.927Z,12.67
2019-01-30T03:03:11.431Z,12.23
2019-01-30T03:05:42.027Z,10.87
2019-01-30T03:08:12.573Z,8.63
2019-01-30T03:10:43.040Z,13.53
2019-01-30T03:13:13.666Z,10.63
2019-01-30T03:15:44.376Z,14.57
2019-01-30T03:18:15.229Z,13.07
2019-01-30T03:20:45.724Z,11.40
2019-01-30T03:23:17.159Z,13.27
2019-01-30T03:25:47.678Z,12.00
2019-01-30T03:28:18.294Z,15.20
2019-01-30T03:30:48.911Z,16.13
2019-01-30T03:33:19.785Z,12.30
2019-01-30T03:35:50.284Z,12.37
2019-01-30T03:38:20.918Z,13.07
2019-01-30T03:40:51.518Z,14.50
2019-01-30T03:43:22.081Z,9.87
2019-01-30T03:45:52.702Z,11.90
2019-01-30T03:48:23.283Z,9.70
2019-01-30T03:50:53.839Z,12.13
2019-01-30T03:53:24.539Z,11.10
2019-01-30T03:55:55.033Z,9.60
2019-01-30T03:58:25.658Z,13.27
2019-01-30T04:00:56.165Z,9.87
2019-01-30T04:03:26.716Z,12.73
2019-01-30T04:05:57.360Z,11.77
2019-01-30T04:08:28.023Z,9.80
2019-01-30T04:10:58.609Z,9.77
2019-01-30T04:13:29.185Z,9.10
2019-01-30T04:15:59.675Z,11.00
2019-01-30T04:18:30.269Z,14.43
2019-01-30T04:21:00.894Z,9.77
2019-01-30T04:23:31.571Z,10.37
2019-01-30T04:26:02.146Z,13.50
2019-01-30T04:28:32.893Z,12.93
2019-01-30T04:31:03.398Z,11.53
2019-01-30T04:33:34.026Z,11.37
2019-01-30T04:36:04.762Z,13.80
2019-01-30T04:38:35.378Z,11.80
2019-01-30T04:41:06.003Z,10.93
2019-01-30T04:43:36.680Z,16.90
2019-01-30T04:46:07.146Z,10.83
2019-01-30T04:48:37.763Z,9.63
2019-01-30T04:51:08.358Z,12.60
2019-01-30T04:53:39.002Z,11.97
2019-01-30T04:56:09.611Z,15.23
2019-01-30T04:58:40.199Z,15.10
2019-01-30T05:01:10.770Z,15.70
2019-01-30T05:03:41.309Z,9.40
2019-01-30T05:06:11.915Z,8.83
2019-01-30T05:08:42.603Z,9.37
2019-01-30T05:11:13.179Z,10.50
2019-01-30T05:13:43.835Z,11.33
2019-01-30T05:16:14.360Z,11.63
2019-01-30T05:18:44.989Z,10.00
2019-01-30T05:21:15.542Z,12.87
2019-01-30T05:23:46.189Z,11.00
2019-01-30T05:26:16.806Z,11.37
2019-01-30T05:28:47.471Z,11.87
2019-01-30T05:31:18.087Z,13.77
2019-01-30T05:33:48.736Z,12.43
2019-01-30T05:36:19.352Z,12.10
2019-01-30T05:38:50.018Z,11.83
2019-01-30T05:41:20.582Z,9.80
2019-01-30T05:43:51.148Z,13.00
2019-01-30T05:46:21.756Z,15.00
2019-01-30T05:48:55.521Z,16.00
2019-01-30T05:51:26.030Z,15.93
2019-01-30T05:53:56.594Z,13.67
2019-01-30T05:56:27.231Z,15.73
2019-01-30T05:58:57.937Z,13.53
2019-01-30T06:01:28.553Z,12.17
2019-01-30T06:03:59.359Z,17.57
2019-01-30T06:06:30.043Z,12.20
2019-01-30T06:09:00.640Z,12.30
2019-01-30T06:11:31.247Z,15.57
2019-01-30T06:14:01.973Z,11.70
2019-01-30T06:16:32.599Z,13.97
2019-01-30T06:19:03.176Z,13.10
2019-01-30T06:21:33.824Z,14.90
2019-01-30T06:24:04.437Z,16.57
2019-01-30T06:26:35.044Z,14.13
2019-01-30T06:29:05.572Z,15.10
2019-01-30T06:31:36.137Z,18.07
2019-01-30T06:34:06.773Z,17.97
2019-01-30T06:36:37.499Z,16.87
2019-01-30T06:39:08.516Z,13.73
2019-01-30T06:41:39.112Z,18.63
2019-01-30T06:44:09.618Z,17.20
2019-01-30T06:46:40.234Z,15.70
2019-01-30T06:49:10.921Z,19.10
2019-01-30T06:51:41.597Z,18.87
2019-01-30T06:54:12.243Z,17.80
2019-01-30T06:56:43.012Z,17.90
2019-01-30T06:59:13.565Z,22.23
2019-01-30T07:01:44.231Z,18.27
2019-01-30T07:04:14.848Z,15.50
2019-01-30T07:06:45.496Z,17.60
2019-01-30T07:09:16.060Z,17.60
2019-01-30T07:11:46.656Z,14.53
2019-01-30T07:14:17.253Z,13.30
2019-01-30T07:16:47.919Z,17.67
2019-01-30T07:19:18.665Z,18.93
2019-01-30T07:21:49.231Z,13.53
2019-01-30T07:24:19.867Z,18.53
2019-01-30T07:26:50.554Z,15.47
2019-01-30T07:29:21.072Z,17.50
2019-01-30T07:31:51.636Z,19.90
2019-01-30T07:34:22.233Z,19.53
2019-01-30T07:36:52.858Z,18.50
2019-01-30T07:39:23.464Z,16.60
2019-01-30T07:41:54.071Z,17.67
2019-01-30T07:44:24.618Z,18.30
2019-01-30T07:46:55.283Z,14.23
2019-01-30T07:49:25.942Z,16.57
2019-01-30T07:51:56.539Z,16.10
2019-01-30T07:54:27.162Z,13.43
2019-01-30T07:56:57.778Z,15.93
2019-01-30T07:59:28.304Z,15.67
2019-01-30T08:01:59.000Z,14.60
2019-01-30T08:04:29.636Z,15.73
2019-01-30T08:07:02.850Z,13.00
2019-01-30T08:09:32.660Z,12.47
2019-01-30T08:12:03.245Z,14.60
2019-01-30T08:14:33.881Z,12.43
2019-01-30T08:17:04.488Z,13.07
2019-01-30T08:19:35.154Z,12.40
2019-01-30T08:22:05.720Z,11.37
2019-01-30T08:24:36.530Z,13.50
2019-01-30T08:27:07.972Z,13.00
2019-01-30T08:29:38.753Z,13.47
2019-01-30T08:32:10.026Z,14.27
2019-01-30T08:34:40.661Z,14.43
2019-01-30T08:37:11.208Z,12.63
2019-01-30T08:39:41.847Z,13.70
2019-01-30T08:42:12.501Z,12.87
2019-01-30T08:44:47.107Z,16.50
2019-01-30T08:47:15.453Z,14.53
2019-01-30T08:49:46.060Z,20.07
2019-01-30T08:52:16.766Z,15.00
2019-01-30T08:54:47.352Z,13.33
2019-01-30T08:57:18.017Z,14.00
2019-01-30T08:59:48.606Z,15.67
2019-01-30T09:02:21.037Z,14.57
2019-01-30T09:04:51.416Z,16.40
2019-01-30T09:07:22.073Z,14.07
2019-01-30T09:09:52.719Z,17.97
2019-01-30T09:12:23.555Z,16.83
2019-01-30T09:14:54.137Z,15.27
2019-01-30T09:17:24.787Z,14.80
2019-01-30T09:19:55.434Z,16.13
2019-01-30T09:22:26.030Z,15.40
2019-01-30T09:24:56.546Z,14.20
2019-01-30T09:27:27.102Z,16.70
2019-01-30T09:29:57.738Z,16.07
2019-01-30T09:32:28.414Z,18.10
2019-01-30T09:34:58.940Z,21.10
2019-01-30T09:37:29.607Z,18.97
2019-01-30T09:40:00.123Z,16.87
2019-01-30T09:42:30.999Z,20.10
2019-01-30T09:45:01.616Z,16.63
2019-01-30T09:47:32.262Z,19.93
2019-01-30T09:50:03.010Z,19.73
2019-01-30T09:52:33.747Z,19.23
2019-01-30T09:55:05.000Z,19.70
2019-01-30T09:57:35.670Z,19.33
2019-01-30T10:00:08.393Z,20.73
2019-01-30T10:02:38.980Z,17.73
2019-01-30T10:05:10.119Z,18.43
2019-01-30T10:07:40.781Z,17.40
2019-01-30T10:10:15.029Z,18.23
2019-01-30T10:12:45.721Z,20.00
2019-01-30T10:15:18.122Z,20.77
2019-01-30T10:17:48.729Z,19.17
2019-01-30T10:20:21.954Z,18.17
2019-01-30T10:22:52.601Z,23.03
2019-01-30T10:25:23.257Z,22.73
2019-01-30T10:27:53.856Z,22.50
2019-01-30T10:30:26.960Z,21.07
2019-01-30T10:32:57.586Z,18.37
2019-01-30T10:35:28.287Z,20.47
2019-01-30T10:37:58.932Z,21.70
2019-01-30T10:40:29.425Z,20.20
2019-01-30T10:43:00.025Z,21.37
2019-01-30T10:45:30.626Z,19.47
2019-01-30T10:48:01.174Z,21.80
2019-01-30T10:50:31.910Z,20.20
2019-01-30T10:53:02.506Z,22.17
2019-01-30T10:55:33.352Z,23.87
2019-01-30T10:58:06.429Z,21.20
2019-01-30T11:00:48.721Z,25.90
2019-01-30T11:03:19.546Z,22.27
2019-01-30T11:05:49.952Z,19.43
2019-01-30T11:08:20.429Z,22.73
2019-01-30T11:10:51.144Z,18.50
2019-01-30T11:13:21.740Z,19.33
2019-01-30T11:15:52.349Z,21.97
2019-01-30T11:18:23.002Z,20.37
2019-01-30T11:20:53.697Z,20.83
2019-01-30T11:23:24.224Z,21.87
2019-01-30T11:25:56.948Z,22.63
2019-01-30T11:28:27.158Z,18.90
2019-01-30T11:30:57.823Z,24.83
2019-01-30T11:33:28.490Z,25.67
2019-01-30T11:35:59.127Z,21.47
2019-01-30T11:38:29.712Z,24.40
2019-01-30T11:41:00.308Z,21.80
2019-01-30T11:43:30.954Z,21.03
2019-01-30T11:46:01.627Z,21.73
2019-01-30T11:48:32.298Z,23.00
2019-01-30T11:51:02.804Z,19.60
2019-01-30T11:53:33.419Z,21.47
2019-01-30T11:56:04.107Z,18.13
2019-01-30T11:58:34.612Z,17.33
2019-01-30T12:01:05.469Z,20.13
2019-01-30T12:03:36.115Z,21.27
2019-01-30T12:06:06.721Z,19.20
2019-01-30T12:08:37.357Z,20.80
2019-01-30T12:11:07.978Z,20.63
2019-01-30T12:13:38.580Z,17.97
2019-01-30T12:16:09.215Z,18.17
2019-01-30T12:18:39.832Z,16.17
2019-01-30T12:21:10.438Z,16.13
2019-01-30T12:23:41.045Z,16.70
2019-01-30T12:26:11.601Z,15.60
2019-01-30T12:28:42.018Z,14.97
2019-01-30T12:31:12.484Z,14.50
2019-01-30T12:33:43.011Z,17.17
2019-01-30T12:36:13.596Z,16.57
2019-01-30T12:38:45.002Z,17.20
2019-01-30T12:41:15.499Z,17.60
2019-01-30T12:43:45.958Z,20.60
2019-01-30T12:46:16.545Z,12.97
2019-01-30T12:48:48.867Z,20.60
2019-01-30T12:51:19.426Z,15.43
2019-01-30T12:53:50.252Z,17.43
2019-01-30T12:56:20.708Z,15.50
2019-01-30T12:58:51.315Z,14.73
2019-01-30T13:01:21.954Z,17.53
2019-01-30T13:03:52.559Z,15.80
2019-01-30T13:06:23.173Z,16.37
2019-01-30T13:08:53.664Z,16.13
2019-01-30T13:11:24.266Z,17.53
2019-01-30T13:13:54.873Z,16.73
2019-01-30T13:16:25.431Z,13.87
2019-01-30T13:18:56.014Z,17.50
2019-01-30T13:21:26.671Z,15.30
2019-01-30T13:23:57.169Z,16.93
2019-01-30T13:26:27.703Z,17.33
2019-01-30T13:28:58.320Z,16.07
2019-01-30T13:31:28.997Z,17.80
2019-01-30T13:33:59.603Z,14.83
2019-01-30T13:36:30.229Z,18.20
2019-01-30T13:39:00.857Z,15.50
2019-01-30T13:41:31.542Z,16.57
2019-01-30T13:44:02.169Z,16.10
2019-01-30T13:46:32.785Z,18.23
2019-01-30T13:49:03.420Z,17.10
2019-01-30T13:51:33.926Z,16.03
2019-01-30T13:54:05.402Z,15.03
2019-01-30T13:56:36.043Z,16.23
2019-01-30T13:59:06.746Z,16.33
2019-01-30T14:01:37.316Z,16.17
2019-01-30T14:04:07.900Z,14.00
2019-01-30T14:06:38.602Z,16.77
2019-01-30T14:09:09.970Z,14.80
2019-01-30T14:11:40.647Z,13.13
2019-01-30T14:14:11.214Z,14.73
2019-01-30T14:16:41.949Z,19.90
2019-01-30T14:19:12.536Z,29.27
2019-01-30T14:21:43.244Z,35.57
2019-01-30T14:24:13.904Z,27.30
2019-01-30T14:26:44.519Z,21.80
2019-01-30T14:29:15.141Z,13.73
2019-01-30T14:31:45.781Z,11.67
2019-01-30T14:34:16.474Z,12.43
2019-01-30T14:36:47.120Z,9.17
2019-01-30T14:39:17.719Z,11.07
2019-01-30T14:41:48.322Z,11.93
2019-01-30T14:44:19.031Z,12.80
2019-01-30T14:46:49.596Z,13.00
2019-01-30T14:49:20.173Z,14.27
2019-01-30T14:51:50.809Z,14.00
2019-01-30T14:54:21.520Z,12.90
2019-01-30T14:56:52.061Z,25.50
2019-01-30T14:59:22.707Z,15.77
2019-01-30T15:01:54.244Z,12.73
2019-01-30T15:04:24.947Z,15.43
2019-01-30T15:06:55.456Z,14.33
2019-01-30T15:09:26.106Z,19.23
2019-01-30T15:11:56.683Z,18.80
2019-01-30T15:14:27.368Z,20.07
2019-01-30T15:16:57.899Z,17.90
2019-01-30T15:19:28.604Z,15.93
2019-01-30T15:21:59.176Z,16.77
2019-01-30T15:24:29.840Z,19.37
2019-01-30T15:27:00.447Z,27.67
2019-01-30T15:29:31.122Z,14.47
2019-01-30T15:32:01.739Z,16.60
2019-01-30T15:34:32.437Z,19.63
2019-01-30T15:37:03.012Z,18.20
2019-01-30T15:39:33.687Z,13.57
2019-01-30T15:42:04.336Z,15.17
2019-01-30T15:44:34.951Z,19.83
2019-01-30T15:47:05.437Z,18.97
2019-01-30T15:49:36.033Z,20.07
2019-01-30T15:52:06.719Z,18.57
2019-01-30T15:54:37.406Z,16.57
2019-01-30T15:57:08.032Z,18.50
2019-01-30T15:59:38.760Z,17.77
2019-01-30T16:02:09.338Z,17.10
2019-01-30T16:04:41.768Z,13.67
2019-01-30T16:07:12.277Z,14.73
2019-01-30T16:09:43.113Z,14.43
2019-01-30T16:12:13.920Z,12.03
2019-01-30T16:14:44.667Z,13.43
2019-01-30T16:17:15.271Z,11.00
2019-01-30T16:19:46.000Z,12.40
2019-01-30T16:22:16.625Z,12.90
2019-01-30T16:24:47.421Z,14.10
2019-01-30T16:27:18.049Z,17.57
2019-01-30T16:29:48.627Z,20.77
2019-01-30T16:32:19.189Z,20.87
2019-01-30T16:34:49.886Z,16.73
2019-01-30T16:37:20.492Z,16.87
2019-01-30T16:39:51.160Z,20.50
2019-01-30T16:42:21.775Z,22.00
2019-01-30T16:44:52.480Z,22.50
2019-01-30T16:47:23.118Z,18.93
2019-01-30T16:49:53.915Z,16.33
2019-01-30T16:52:24.569Z,21.13
2019-01-30T16:54:55.165Z,20.80
2019-01-30T16:57:25.721Z,18.90
2019-01-30T16:59:56.449Z,19.70
2019-01-30T17:02:27.155Z,17.87
2019-01-30T17:04:57.842Z,19.50
2019-01-30T17:07:28.436Z,19.90
2019-01-30T17:09:59.002Z,21.13
2019-01-30T17:12:29.709Z,20.40
2019-01-30T17:15:00.316Z,17.60
2019-01-30T17:17:31.021Z,20.30
2019-01-30T17:20:01.649Z,20.73
2019-01-30T17:22:32.283Z,17.57
2019-01-30T17:25:02.969Z,21.03
2019-01-30T17:27:33.625Z,23.53
2019-01-30T17:30:05.222Z,25.93
2019-01-30T17:32:35.917Z,23.50
2019-01-30T17:35:06.602Z,21.20
2019-01-30T17:37:37.260Z,24.70
2019-01-30T17:40:11.317Z,23.07
2019-01-30T17:42:41.894Z,23.83
2019-01-30T17:45:12.510Z,22.77
2019-01-30T17:47:43.247Z,19.37
2019-01-30T17:50:16.393Z,18.07
2019-01-30T17:52:47.061Z,14.67
2019-01-30T17:55:17.655Z,18.50
2019-01-30T17:57:48.251Z,16.93
2019-01-30T18:00:41.872Z,20.27
2019-01-30T18:03:12.488Z,56.37
2019-01-30T18:05:45.546Z,71.67
2019-01-30T18:08:16.066Z,52.73
2019-01-30T18:10:46.688Z,53.50
2019-01-30T18:13:17.324Z,31.60
2019-01-30T18:15:48.000Z,50.23
2019-01-30T18:18:18.987Z,30.50
2019-01-30T18:20:49.663Z,25.70
2019-01-30T18:23:20.290Z,18.57
2019-01-30T18:25:50.858Z,20.50
2019-01-30T18:28:21.552Z,21.37
2019-01-30T18:30:52.137Z,16.47
2019-01-30T18:33:22.713Z,19.40
2019-01-30T18:35:53.501Z,20.80
2019-01-30T18:38:24.126Z,21.00
2019-01-30T18:40:54.761Z,21.70
2019-01-30T18:43:25.378Z,15.70
2019-01-30T18:45:55.954Z,17.13
2019-01-30T18:48:26.651Z,13.43
2019-01-30T18:50:57.339Z,20.83
2019-01-30T18:53:27.947Z,15.13
2019-01-30T18:55:58.450Z,17.57
2019-01-30T18:58:29.035Z,18.07
2019-01-30T19:00:59.671Z,16.40
2019-01-30T19:03:30.318Z,14.57
2019-01-30T19:06:00.994Z,13.07
2019-01-30T19:08:31.667Z,12.70
2019-01-30T19:11:02.308Z,16.40
2019-01-30T19:13:33.014Z,18.73
2019-01-30T19:16:03.609Z,15.00
2019-01-30T19:18:34.303Z,15.37
2019-01-30T19:21:04.932Z,15.37
2019-01-30T19:23:35.597Z,8.87
2019-01-30T19:26:06.243Z,14.40
2019-01-30T19:28:36.960Z,13.97
2019-01-30T19:31:07.606Z,19.40
2019-01-30T19:33:38.306Z,23.70
2019-01-30T19:36:08.929Z,29.83
2019-01-30T19:38:39.576Z,42.73
2019-01-30T19:41:10.230Z,16.73
2019-01-30T19:43:40.866Z,17.20
2019-01-30T19:46:11.505Z,18.77
2019-01-30T19:48:42.189Z,11.33
2019-01-30T19:51:12.828Z,19.80
2019-01-30T19:53:43.531Z,22.43
2019-01-30T19:56:14.177Z,27.97
2019-01-30T19:58:44.896Z,17.83
2019-01-30T20:01:15.403Z,11.77
2019-01-30T20:03:45.858Z,14.17
2019-01-30T20:06:16.482Z,13.50
2019-01-30T20:08:47.038Z,13.23
2019-01-30T20:11:17.675Z,15.10
2019-01-30T20:13:48.192Z,18.97
2019-01-30T20:16:18.766Z,16.47
2019-01-30T20:18:49.392Z,15.90
2019-01-30T20:21:20.079Z,12.70
2019-01-30T20:23:50.886Z,13.87
2019-01-30T20:26:21.530Z,14.93
2019-01-30T20:28:52.116Z,13.60
2019-01-30T20:31:22.785Z,13.93
2019-01-30T20:33:53.420Z,14.60
2019-01-30T20:36:24.047Z,10.87
2019-01-30T20:38:54.653Z,11.83
2019-01-30T20:41:25.319Z,10.17
2019-01-30T20:43:55.924Z,10.70
2019-01-30T20:46:26.470Z,8.60
2019-01-30T20:48:57.127Z,14.47
2019-01-30T20:51:27.723Z,11.80
2019-01-30T20:54:00.556Z,11.10
2019-01-30T20:56:30.495Z,10.70
2019-01-30T20:59:00.985Z,9.17
2019-01-30T21:01:31.638Z,12.33
2019-01-30T21:04:02.133Z,11.30
2019-01-30T21:06:32.760Z,8.87
2019-01-30T21:09:03.716Z,10.10
2019-01-30T21:11:34.332Z,8.43
2019-01-30T21:14:05.188Z,10.00
2019-01-30T21:16:35.765Z,14.17
2019-01-30T21:19:06.382Z,6.00
2019-01-30T21:21:36.848Z,8.60
2019-01-30T21:24:07.413Z,5.60
2019-01-30T21:26:37.989Z,10.17
2019-01-30T21:29:08.605Z,5.60
2019-01-30T21:31:39.525Z,9.53
2019-01-30T21:34:10.137Z,7.23
2019-01-30T21:36:40.694Z,11.87
2019-01-30T21:39:11.349Z,10.87
2019-01-30T21:41:43.090Z,9.77
2019-01-30T21:44:13.873Z,6.63
2019-01-30T21:46:44.410Z,5.73
2019-01-30T21:49:15.015Z,8.00
2019-01-30T21:51:45.601Z,6.97
2019-01-30T21:54:16.247Z,9.43
2019-01-30T21:56:46.883Z,8.03
2019-01-30T21:59:17.539Z,6.83
2019-01-30T22:01:48.196Z,6.23
2019-01-30T22:04:18.702Z,10.87
2019-01-30T22:06:49.298Z,8.70
2019-01-30T22:09:19.874Z,4.87
2019-01-30T22:11:50.511Z,5.20
2019-01-30T22:14:21.219Z,3.90
2019-01-30T22:16:51.931Z,6.67
2019-01-30T22:19:22.529Z,12.33
2019-01-30T22:21:53.065Z,10.47
2019-01-30T22:24:23.701Z,12.07
2019-01-30T22:26:54.327Z,12.50
2019-01-30T22:29:24.913Z,9.80
2019-01-30T22:31:55.379Z,14.37
2019-01-30T22:34:26.055Z,6.83
2019-01-30T22:36:56.542Z,9.33
2019-01-30T22:39:28.350Z,11.57
2019-01-30T22:42:02.166Z,8.93
2019-01-30T22:44:31.308Z,6.70
2019-01-30T22:47:01.807Z,10.23
2019-01-30T22:49:32.352Z,7.33
2019-01-30T22:52:03.009Z,7.10
2019-01-30T22:54:33.544Z,11.67
2019-01-30T22:57:04.157Z,8.83
2019-01-30T22:59:34.692Z,8.43
2019-01-30T23:02:10.218Z,8.97
2019-01-30T23:04:48.993Z,16.30
2019-01-30T23:07:27.681Z,8.17
2019-01-30T23:10:33.855Z,10.33
2019-01-30T23:13:34.361Z,12.40
2019-01-30T23:16:24.710Z,10.23
2019-01-30T23:19:29.324Z,6.73
2019-01-30T23:22:47.061Z,9.93
2019-01-30T23:25:54.426Z,9.00
2019-01-30T23:28:51.189Z,6.47
2019-01-30T23:31:51.622Z,7.33
2019-01-30T23:35:21.671Z,7.77
2019-01-30T23:38:36.349Z,10.80
2019-01-30T23:41:46.125Z,10.47
2019-01-30T23:45:10.056Z,11.37
2019-01-30T23:48:11.887Z,5.33
2019-01-30T23:51:29.115Z,9.07
2019-01-30T23:54:42.342Z,6.27
2019-01-30T23:57:44.377Z,8.30
